Time;durP1;ratioP1;P1;durP2;ratioP2;P2;SDS_P1;SDS_P2;PMS_P1;PMS_P2;Temp;Humidity;BMP_temperature;BMP_pressure;BME280_temperature;BME280_humidity;BME280_pressure;Samples;Min_cycle;Max_cycle;Signal;HPM_P1;HPM_P2
2022/07/03 00:01:48;;;;;;;4.05;0.98;;;;;;;17.20;100.00;96733.44;5036627;28;20397;-73
2022/07/03 00:04:14;;;;;;;2.28;1.23;;;;;;;17.09;100.00;96732.69;5036078;28;20047;-73
2022/07/03 00:06:39;;;;;;;4.80;1.70;;;;;;;16.89;100.00;96744.50;5032431;28;20076;-72
2022/07/03 00:09:05;;;;;;;2.38;1.20;;;;;;;16.79;100.00;96738.31;5035121;28;20132;-72
2022/07/03 00:11:32;;;;;;;8.15;1.58;;;;;;;16.67;100.00;96742.16;5037565;28;20064;-73
2022/07/03 00:13:58;;;;;;;2.10;1.02;;;;;;;16.37;100.00;96742.34;5035097;28;20037;-72
2022/07/03 00:16:24;;;;;;;2.58;1.40;;;;;;;16.11;100.00;96745.19;5035210;28;20036;-72
2022/07/03 00:18:50;;;;;;;4.18;1.30;;;;;;;16.29;100.00;96751.84;5034623;28;20045;-72
2022/07/03 00:21:20;;;;;;;3.45;1.40;;;;;;;16.52;100.00;96760.38;5034163;28;20724;-72
2022/07/03 00:23:54;;;;;;;4.97;1.30;;;;;;;16.65;100.00;96765.13;5033909;28;20037;-72
2022/07/03 00:26:20;;;;;;;3.63;1.50;;;;;;;16.63;100.00;96768.13;5035837;28;20051;-74
2022/07/03 00:28:47;;;;;;;3.08;1.48;;;;;;;16.32;100.00;96762.06;5037057;28;20041;-72
2022/07/03 00:31:13;;;;;;;2.75;1.63;;;;;;;16.14;100.00;96770.81;5033841;28;20551;-72
2022/07/03 00:33:40;;;;;;;4.13;1.38;;;;;;;16.19;100.00;96765.38;5034890;28;20094;-72
2022/07/03 00:36:06;;;;;;;4.63;1.55;;;;;;;16.19;100.00;96767.28;5035890;28;20386;-72
2022/07/03 00:38:32;;;;;;;3.28;1.30;;;;;;;16.25;100.00;96761.56;5039330;28;20037;-72
2022/07/03 00:40:58;;;;;;;2.85;1.20;;;;;;;16.24;100.00;96753.75;5035259;28;20029;-73
2022/07/03 00:43:25;;;;;;;4.88;1.40;;;;;;;16.19;100.00;96756.47;5035568;28;20094;-72
2022/07/03 00:45:53;;;;;;;2.58;1.40;;;;;;;16.10;100.00;96748.13;5035025;28;20036;-72
2022/07/03 00:48:21;;;;;;;3.63;1.45;;;;;;;15.94;100.00;96741.19;5031862;28;20028;-72
2022/07/03 00:50:50;;;;;;;3.28;1.40;;;;;;;15.76;100.00;96743.41;5035649;28;20041;-72
2022/07/03 00:53:29;;;;;;;5.03;1.40;;;;;;;15.61;100.00;96727.25;5035776;28;20036;-73
2022/07/03 00:55:55;;;;;;;3.53;1.20;;;;;;;15.68;100.00;96730.47;5034133;28;20036;-73
2022/07/03 00:58:21;;;;;;;2.72;1.25;;;;;;;15.72;100.00;96725.31;5035002;28;20128;-72
2022/07/03 01:00:50;;;;;;;2.15;1.05;;;;;;;15.54;100.00;96716.72;5034025;28;20032;-72
2022/07/03 01:03:19;;;;;;;5.28;1.30;;;;;;;15.50;100.00;96720.25;5052993;28;20119;-73
2022/07/03 01:05:50;;;;;;;2.90;1.10;;;;;;;15.38;100.00;96722.41;5035260;28;20068;-72
2022/07/03 01:08:27;;;;;;;2.15;0.98;;;;;;;15.38;100.00;96714.31;5031719;28;20374;-72
2022/07/03 01:11:05;;;;;;;2.55;1.17;;;;;;;15.36;100.00;96716.50;5033610;28;20047;-72
2022/07/03 01:13:42;;;;;;;5.45;1.20;;;;;;;15.30;100.00;96711.09;5035797;28;20490;-72
2022/07/03 01:16:21;;;;;;;2.40;1.20;;;;;;;15.28;100.00;96715.97;5032148;28;20140;-72
2022/07/03 01:19:17;;;;;;;2.88;1.23;;;;;;;15.32;100.00;96710.81;5052061;28;20056;-72
2022/07/03 01:22:02;;;;;;;3.60;1.20;;;;;;;15.27;100.00;96708.16;5036833;28;20036;-72
2022/07/03 01:25:01;;;;;;;3.80;1.40;;;;;;;15.23;100.00;96710.56;5033353;28;20041;-72
2022/07/03 01:27:33;;;;;;;2.65;1.48;;;;;;;15.04;100.00;96712.22;5034181;28;20476;-72
2022/07/03 01:30:03;;;;;;;4.82;1.45;;;;;;;14.96;100.00;96708.19;5030647;28;20094;-72
2022/07/03 01:32:46;;;;;;;5.85;1.73;;;;;;;14.92;100.00;96708.97;5030471;28;20163;-72
2022/07/03 01:35:16;;;;;;;3.75;1.40;;;;;;;14.91;100.00;96716.25;5030425;28;20562;-71
2022/07/03 01:37:42;;;;;;;5.25;1.38;;;;;;;14.86;100.00;96710.84;5050901;28;20085;-71
2022/07/03 01:40:08;;;;;;;6.32;1.55;;;;;;;14.90;100.00;96709.25;5031748;28;20041;-71
2022/07/03 01:42:40;;;;;;;5.20;1.40;;;;;;;14.89;100.00;96696.06;5031959;28;20048;-72
2022/07/03 01:45:08;;;;;;;3.05;1.48;;;;;;;14.85;100.00;96706.56;5033024;28;20308;-71
2022/07/03 01:47:34;;;;;;;3.15;1.40;;;;;;;14.83;100.00;96713.28;5033964;28;20530;-72
2022/07/03 01:50:01;;;;;;;6.45;1.70;;;;;;;14.74;100.00;96713.03;5032812;28;20114;-72
2022/07/03 01:52:31;;;;;;;2.42;1.20;;;;;;;14.76;100.00;96714.38;5032063;28;20065;-72
2022/07/03 01:55:00;;;;;;;2.45;1.52;;;;;;;14.71;100.00;96709.00;5031708;28;20045;-72
2022/07/03 01:57:42;;;;;;;3.45;1.60;;;;;;;14.72;100.00;96713.31;5050482;28;20020;-72
2022/07/03 02:00:09;;;;;;;5.13;1.40;;;;;;;14.63;100.00;96712.22;5049714;28;20139;-72
2022/07/03 02:02:43;;;;;;;3.58;1.45;;;;;;;14.66;100.00;96702.78;5036239;28;20151;-71
2022/07/03 02:05:20;;;;;;;3.85;1.90;;;;;;;14.59;100.00;96708.44;5030354;28;20064;-72
2022/07/03 02:08:02;;;;;;;3.10;1.40;;;;;;;14.58;100.00;96703.31;5053433;28;20044;-71
2022/07/03 02:10:33;;;;;;;3.85;1.20;;;;;;;14.57;100.00;96699.00;5032739;28;20347;-72
2022/07/03 02:13:07;;;;;;;3.30;1.20;;;;;;;14.60;100.00;96699.28;5035617;28;20075;-72
2022/07/03 02:15:34;;;;;;;7.95;1.35;;;;;;;14.60;100.00;96687.69;5033204;28;20033;-72
2022/07/03 02:18:18;;;;;;;3.60;1.48;;;;;;;14.56;100.00;96692.81;5032053;28;20159;-72
2022/07/03 02:20:51;;;;;;;4.20;1.63;;;;;;;14.52;100.00;96683.66;5034924;28;20029;-72
2022/07/03 02:23:22;;;;;;;5.05;1.67;;;;;;;14.53;100.00;96687.16;5032984;28;20440;-72
2022/07/03 02:25:51;;;;;;;;;;;;;;;14.37;100.00;96683.59;5034594;28;20806;-72
2022/07/03 02:28:30;;;;;;;5.88;1.65;;;;;;;14.31;100.00;96688.16;5031333;28;19990;-72
2022/07/03 02:31:02;;;;;;;3.90;1.90;;;;;;;14.27;100.00;96691.66;5034934;28;20470;-72
2022/07/03 02:33:30;;;;;;;2.80;1.45;;;;;;;14.14;100.00;96688.38;5033440;28;20036;-72
2022/07/03 02:35:57;;;;;;;3.17;1.58;;;;;;;14.15;100.00;96687.31;5030268;28;20037;-72
2022/07/03 02:38:24;;;;;;;3.40;1.70;;;;;;;14.05;100.00;96692.66;5033389;28;20037;-72
2022/07/03 02:41:17;;;;;;;3.42;2.15;;;;;;;14.06;100.00;96696.97;5030368;28;20258;-71
2022/07/03 02:43:57;;;;;;;3.85;1.73;;;;;;;14.00;100.00;96683.78;5030935;28;20044;-72
2022/07/03 02:49:33;;;;;;;5.70;1.45;;;;;;;14.06;100.00;96686.22;5030026;28;20295;-72
2022/07/03 02:52:12;;;;;;;2.72;1.30;;;;;;;14.02;100.00;96687.03;5031189;28;20090;-72
2022/07/03 02:55:02;;;;;;;2.92;1.23;;;;;;;13.99;100.00;96690.22;5031238;28;20040;-72
2022/07/03 02:57:38;;;;;;;2.47;1.20;;;;;;;13.85;100.00;96692.59;5032656;28;20035;-72
2022/07/03 03:00:06;;;;;;;3.67;1.30;;;;;;;13.85;100.00;96695.28;5032933;28;20032;-72
2022/07/03 03:02:54;;;;;;;2.28;1.25;;;;;;;13.80;100.00;96693.41;5035037;28;20021;-72
2022/07/03 03:05:45;;;;;;;3.55;1.20;;;;;;;13.72;100.00;96693.09;5034376;28;20046;-72
2022/07/03 03:08:33;;;;;;;4.68;1.42;;;;;;;13.70;100.00;96697.94;5037366;28;20420;-72
2022/07/03 03:11:07;;;;;;;4.22;1.70;;;;;;;13.76;100.00;96694.19;5039037;28;20048;-72
2022/07/03 03:13:34;;;;;;;3.10;1.25;;;;;;;13.96;100.00;96694.25;5035585;28;20063;-72
2022/07/03 03:16:07;;;;;;;4.03;1.23;;;;;;;13.96;100.00;96694.25;5036881;28;20025;-72
2022/07/03 03:18:37;;;;;;;3.05;1.42;;;;;;;13.94;100.00;96696.41;5036620;28;20084;-71
2022/07/03 03:21:05;;;;;;;5.35;1.50;;;;;;;13.97;100.00;96695.88;5038799;28;20044;-72
2022/07/03 03:23:52;;;;;;;4.85;1.40;;;;;;;14.00;100.00;96695.34;5050647;28;20029;-72
2022/07/03 03:26:28;;;;;;;4.50;1.77;;;;;;;13.89;100.00;96680.25;5036365;28;20041;-71
2022/07/03 03:28:54;;;;;;;4.60;1.50;;;;;;;13.72;100.00;96676.97;5034945;28;20028;-72
2022/07/03 03:31:21;;;;;;;5.15;1.60;;;;;;;13.78;100.00;96676.72;5036466;28;20056;-72
2022/07/03 03:33:49;;;;;;;6.22;1.50;;;;;;;13.88;100.00;96692.09;5054803;28;20045;-72
2022/07/03 03:36:17;;;;;;;4.68;1.30;;;;;;;14.00;100.00;96700.72;5036046;28;20339;-72
2022/07/03 03:38:42;;;;;;;3.10;1.45;;;;;;;14.09;100.00;96695.66;5035311;28;20486;-72
2022/07/03 03:41:09;;;;;;;5.05;1.30;;;;;;;14.16;100.00;96694.34;5036185;28;20037;-72
2022/07/03 03:43:35;;;;;;;3.15;1.35;;;;;;;14.27;100.00;96695.16;5037499;28;20040;-72
2022/07/03 03:46:01;;;;;;;2.50;1.50;;;;;;;14.31;100.00;96701.59;5037549;28;20115;-72
2022/07/03 03:48:28;;;;;;;4.32;1.38;;;;;;;14.34;100.00;96698.41;5035875;28;20236;-72
2022/07/03 03:50:55;;;;;;;4.00;1.33;;;;;;;14.41;100.00;96701.66;5035899;28;20048;-72
2022/07/03 03:53:22;;;;;;;5.07;1.75;;;;;;;14.41;100.00;96701.66;5036074;28;20404;-72
2022/07/03 03:55:59;;;;;;;2.95;1.10;;;;;;;14.43;100.00;96704.06;5038444;28;20361;-72
2022/07/03 03:58:25;;;;;;;6.32;1.60;;;;;;;14.38;100.00;96704.84;5032764;28;20447;-72
2022/07/03 04:00:52;;;;;;;3.95;1.60;;;;;;;14.20;100.00;96699.97;5035513;28;20185;-72
2022/07/03 04:03:18;;;;;;;2.58;1.20;;;;;;;14.21;100.00;96699.72;5034908;28;20045;-72
2022/07/03 04:05:43;;;;;;;3.05;1.58;;;;;;;14.28;100.00;96701.34;5035050;28;20033;-73
2022/07/03 04:08:10;;;;;;;7.10;1.60;;;;;;;14.29;100.00;96705.66;5037339;28;20205;-72
2022/07/03 04:10:35;;;;;;;5.18;1.52;;;;;;;14.38;100.00;96707.53;5036798;28;20037;-72
2022/07/03 04:13:01;;;;;;;4.82;1.33;;;;;;;14.47;100.00;96702.47;5054585;28;20071;-72
2022/07/03 04:15:26;;;;;;;3.85;1.50;;;;;;;14.54;100.00;96703.03;5034692;28;20029;-71
2022/07/03 04:17:52;;;;;;;4.75;1.50;;;;;;;14.59;100.00;96707.63;5035891;28;20287;-72
2022/07/03 04:20:17;;;;;;;2.88;1.30;;;;;;;14.67;100.00;96705.22;5035474;28;20079;-72
2022/07/03 04:22:43;;;;;;;2.70;1.40;;;;;;;14.76;100.00;96702.78;5036539;28;20174;-73
2022/07/03 04:25:08;;;;;;;3.75;1.02;;;;;;;14.86;100.00;96708.16;5035549;28;20088;-72
2022/07/03 04:27:34;;;;;;;3.65;1.40;;;;;;;14.95;100.00;96711.16;5036452;28;20449;-72
2022/07/03 04:29:59;;;;;;;4.45;1.45;;;;;;;15.03;100.00;96710.59;5035728;28;20472;-72
2022/07/03 04:32:25;;;;;;;2.70;1.20;;;;;;;15.05;100.00;96725.41;5039059;28;20052;-72
2022/07/03 04:34:50;;;;;;;2.88;1.35;;;;;;;15.03;100.00;96719.50;5035619;28;20056;-72
2022/07/03 04:37:16;;;;;;;7.95;1.45;;;;;;;15.05;100.00;96720.03;5037080;28;20491;-72
2022/07/03 04:39:41;;;;;;;3.20;1.45;;;;;;;15.12;100.00;96721.66;5035683;28;20041;-72
2022/07/03 04:42:07;;;;;;;3.40;1.20;;;;;;;15.17;100.00;96710.84;5038827;28;20043;-72
2022/07/03 04:44:32;;;;;;;2.10;1.10;;;;;;;15.25;100.00;96713.00;5034712;28;20367;-72
2022/07/03 04:46:58;;;;;;;3.78;1.40;;;;;;;15.37;100.00;96710.03;5033084;28;20037;-72
2022/07/03 04:49:23;;;;;;;3.97;1.20;;;;;;;15.46;100.00;96711.88;5035278;28;20498;-72
2022/07/03 04:51:48;;;;;;;2.65;1.20;;;;;;;15.58;100.00;96708.91;5036228;28;20061;-73
2022/07/03 04:54:14;;;;;;;2.78;1.30;;;;;;;15.69;100.00;96715.91;5036351;28;20032;-72
2022/07/03 04:56:39;;;;;;;3.95;1.50;;;;;;;15.82;100.00;96714.53;5036061;28;20454;-72
2022/07/03 04:59:05;;;;;;;3.58;1.40;;;;;;;15.93;100.00;96716.09;5036459;28;21073;-72
2022/07/03 05:01:30;;;;;;;3.00;1.60;;;;;;;16.05;100.00;96718.47;5036905;28;20037;-72
2022/07/03 05:03:56;;;;;;;3.42;1.50;;;;;;;16.17;100.00;96718.94;5035167;28;20507;-72
2022/07/03 05:06:21;;;;;;;3.20;1.52;;;;;;;16.32;100.00;96718.88;5050501;28;20032;-72
2022/07/03 05:08:47;;;;;;;6.20;1.50;;;;;;;16.51;100.00;96716.34;5035418;28;20036;-72
2022/07/03 05:11:12;;;;;;;2.85;1.20;;;;;;;16.73;100.00;96718.66;5034774;28;20068;-72
2022/07/03 05:13:38;;;;;;;2.53;1.27;;;;;;;16.90;100.00;96710.97;5038088;28;20114;-73
2022/07/03 05:16:03;;;;;;;3.55;1.42;;;;;;;16.96;100.00;96717.09;5031601;28;20560;-74
2022/07/03 05:18:29;;;;;;;2.17;1.20;;;;;;;16.91;100.00;96712.56;5020035;28;20045;-73
2022/07/03 05:20:54;;;;;;;2.97;1.35;;;;;;;16.87;100.00;96711.50;5037022;28;20042;-73
2022/07/03 05:23:20;;;;;;;6.25;1.90;;;;;;;16.91;100.00;96715.28;5032987;28;20033;-72
2022/07/03 05:25:45;;;;;;;2.30;1.20;;;;;;;16.95;100.00;96716.31;5038639;28;20538;-72
2022/07/03 05:28:11;;;;;;;9.13;1.52;;;;;;;17.04;100.00;96719.19;5035995;28;20045;-73
2022/07/03 05:30:36;;;;;;;3.38;1.30;;;;;;;17.11;100.00;96716.19;5019559;28;20079;-72
2022/07/03 05:33:02;;;;;;;5.30;1.30;;;;;;;17.22;100.00;96713.13;5049194;28;20128;-73
2022/07/03 05:35:27;;;;;;;8.18;1.30;;;;;;;17.33;100.00;96718.41;5019334;28;20037;-72
2022/07/03 05:37:53;;;;;;;2.22;1.10;;;;;;;17.39;100.00;96728.91;5036445;28;20029;-73
2022/07/03 05:40:19;;;;;;;2.58;1.10;;;;;;;17.42;100.00;96731.03;5032872;28;20033;-73
2022/07/03 05:42:44;;;;;;;2.55;1.15;;;;;;;17.46;100.00;96731.28;5037695;28;20100;-73
2022/07/03 05:45:10;;;;;;;4.75;1.30;;;;;;;17.41;100.00;96734.84;5034422;28;20143;-73
2022/07/03 05:47:36;;;;;;;4.93;1.30;;;;;;;17.45;100.00;96733.19;5034948;28;20455;-73
2022/07/03 05:50:02;;;;;;;2.35;1.10;;;;;;;17.44;100.00;96734.28;5034432;28;20035;-73
2022/07/03 05:52:28;;;;;;;3.22;1.20;;;;;;;17.56;100.00;96728.47;5002620;28;20032;-73
2022/07/03 05:54:53;;;;;;;3.53;1.27;;;;;;;17.68;100.00;96734.31;5034903;28;20404;-73
2022/07/03 05:57:20;;;;;;;4.65;1.40;;;;;;;17.76;100.00;96739.13;5038310;28;20465;-74
2022/07/03 05:59:46;;;;;;;3.53;1.40;;;;;;;17.78;100.00;96728.81;5051118;28;20113;-74
2022/07/03 06:02:11;;;;;;;5.72;1.30;;;;;;;17.76;100.00;96735.59;5034216;28;20129;-73
2022/07/03 06:04:36;;;;;;;2.33;1.23;;;;;;;17.67;100.00;96737.31;5033836;28;20654;-73
2022/07/03 06:07:02;;;;;;;8.13;1.30;;;;;;;17.70;100.00;96729.44;5050947;28;20029;-73
2022/07/03 06:09:28;;;;;;;3.22;1.50;;;;;;;17.85;100.00;96742.00;5050603;28;20484;-74
2022/07/03 06:11:53;;;;;;;3.00;1.20;;;;;;;17.86;100.00;96740.91;5001946;28;20180;-73
2022/07/03 06:14:19;;;;;;;4.30;1.25;;;;;;;17.93;100.00;96748.69;5015576;28;20028;-74
2022/07/03 06:16:44;;;;;;;2.28;1.13;;;;;;;18.00;100.00;96741.03;5002050;28;20224;-75
2022/07/03 06:19:10;;;;;;;3.45;1.30;;;;;;;18.13;100.00;96744.91;5032541;28;20052;-74
2022/07/03 06:21:35;;;;;;;2.53;1.20;;;;;;;18.19;100.00;96751.88;5036592;28;20110;-73
2022/07/03 06:24:01;;;;;;;2.65;1.10;;;;;;;18.23;100.00;96748.31;5017494;28;20502;-73
2022/07/03 06:26:28;;;;;;;4.65;1.42;;;;;;;18.31;100.00;96742.25;5034725;28;20469;-74
2022/07/03 06:28:54;;;;;;;2.75;1.38;;;;;;;18.40;100.00;96753.25;5049118;28;20488;-74
2022/07/03 06:31:20;;;;;;;4.88;1.27;;;;;;;18.45;100.00;96758.59;5048950;28;20041;-73
2022/07/03 06:33:45;;;;;;;7.10;1.40;;;;;;;18.51;100.00;96753.91;5034477;28;20291;-73
2022/07/03 06:36:11;;;;;;;3.03;1.23;;;;;;;18.56;100.00;96756.56;5031959;28;20447;-72
2022/07/03 06:38:36;;;;;;;3.55;1.35;;;;;;;18.61;100.00;96762.72;4336498;28;10000244;-73
2022/07/03 06:41:02;;;;;;;3.30;1.50;;;;;;;18.68;100.00;96761.56;5036450;28;20037;-73
2022/07/03 06:43:27;;;;;;;3.33;1.33;;;;;;;18.65;100.00;96758.34;5034852;28;20082;-74
2022/07/03 06:45:53;;;;;;;6.05;1.83;;;;;;;18.74;100.00;96763.09;5039893;28;20289;-73
2022/07/03 06:48:19;;;;;;;4.80;1.67;;;;;;;18.79;100.00;96760.31;5039483;28;20763;-72
2022/07/03 06:50:47;;;;;;;3.78;1.55;;;;;;;18.85;100.00;96761.88;5036273;28;20485;-74
2022/07/03 06:53:13;;;;;;;3.58;1.50;;;;;;;18.91;100.00;96756.09;5034958;28;20136;-73
2022/07/03 06:55:38;;;;;;;4.07;1.58;;;;;;;18.96;100.00;96755.19;5036553;28;20055;-73
2022/07/03 06:58:04;;;;;;;3.78;1.45;;;;;;;19.02;100.00;96753.19;5035391;28;20041;-74
2022/07/03 07:00:29;;;;;;;4.88;1.55;;;;;;;19.06;100.00;96760.44;5035708;28;20067;-74
2022/07/03 07:02:55;;;;;;;6.13;1.60;;;;;;;19.15;100.00;96749.75;5031652;28;20029;-73
2022/07/03 07:05:22;;;;;;;4.30;1.65;;;;;;;19.17;100.00;96751.06;5017357;28;20057;-73
2022/07/03 07:07:48;;;;;;;4.35;1.38;;;;;;;19.18;100.00;96747.22;5034400;28;20543;-73
2022/07/03 07:10:13;;;;;;;2.95;1.42;;;;;;;19.26;100.00;96753.88;5034741;28;20372;-73
2022/07/03 07:12:39;;;;;;;3.90;1.60;;;;;;;19.32;100.00;96741.06;5022812;28;20125;-74
2022/07/03 07:15:05;;;;;;;7.88;1.63;;;;;;;19.40;100.00;96751.22;5049820;28;20037;-74
2022/07/03 07:17:30;;;;;;;3.50;1.70;;;;;;;19.44;100.00;96753.03;5035211;28;20052;-73
2022/07/03 07:19:56;;;;;;;5.72;1.55;;;;;;;19.49;100.00;96752.16;5035521;28;20245;-73
2022/07/03 07:22:22;;;;;;;4.97;1.67;;;;;;;19.54;100.00;96748.53;5035840;28;20140;-74
2022/07/03 07:24:48;;;;;;;5.35;1.60;;;;;;;19.63;100.00;96752.22;5037297;28;20132;-73
2022/07/03 07:27:13;;;;;;;5.15;1.77;;;;;;;19.71;100.00;96756.94;5022418;28;20044;-73
2022/07/03 07:29:39;;;;;;;3.30;1.52;;;;;;;19.72;100.00;96756.63;5018797;28;20145;-73
2022/07/03 07:32:05;;;;;;;5.07;1.60;;;;;;;19.71;100.00;96763.19;5034662;28;20094;-73
2022/07/03 07:34:30;;;;;;;4.47;1.60;;;;;;;19.82;100.00;96769.22;5034167;28;20025;-73
2022/07/03 07:36:56;;;;;;;6.90;1.65;;;;;;;19.86;100.00;96764.00;5019808;28;20585;-73
2022/07/03 07:39:21;;;;;;;5.40;1.60;;;;;;;19.90;100.00;96762.28;5033922;28;20481;-73
2022/07/03 07:41:47;;;;;;;4.55;1.67;;;;;;;19.96;100.00;96769.22;5035799;28;20400;-74
2022/07/03 07:44:12;;;;;;;4.60;1.60;;;;;;;20.02;100.00;96768.03;5016011;28;20393;-73
2022/07/03 07:46:37;;;;;;;3.22;1.52;;;;;;;20.07;100.00;96772.53;5013873;28;20039;-73
2022/07/03 07:49:03;;;;;;;4.32;1.40;;;;;;;20.02;100.00;96757.97;5033707;28;20526;-72
2022/07/03 07:51:28;;;;;;;4.68;1.98;;;;;;;20.10;100.00;96767.34;5016868;28;20361;-73
2022/07/03 07:53:57;;;;;;;3.83;1.70;;;;;;;20.08;100.00;96769.56;5045302;28;20369;-75
2022/07/03 07:56:24;;;;;;;3.35;1.65;;;;;;;20.16;100.00;96765.31;5032970;28;20034;-74
2022/07/03 07:58:51;;;;;;;5.47;1.83;;;;;;;20.21;100.00;96765.22;5020700;28;20036;-73
2022/07/03 08:06:46;;;;;;;4.32;1.50;;;;;;;20.41;100.00;96770.22;5036479;28;20402;-74
2022/07/03 08:09:11;;;;;;;7.55;1.52;;;;;;;20.46;100.00;96769.34;5055178;28;20063;-73
2022/07/03 08:11:37;;;;;;;3.58;1.58;;;;;;;20.49;100.00;96763.31;5035154;28;20358;-73
2022/07/03 08:14:04;;;;;;;6.60;1.98;;;;;;;20.53;100.00;96762.38;5036485;28;20033;-74
2022/07/03 08:16:31;;;;;;;3.92;1.50;;;;;;;20.58;100.00;96756.84;5033177;28;20039;-74
2022/07/03 08:18:56;;;;;;;4.43;1.50;;;;;;;20.65;100.00;96758.34;5036118;28;20577;-73
2022/07/03 08:21:22;;;;;;;4.55;1.60;;;;;;;20.72;100.00;96764.97;5050531;28;20033;-72
2022/07/03 08:23:48;;;;;;;2.85;1.30;;;;;;;20.75;99.73;96756.19;5023854;28;20025;-74
2022/07/03 08:26:14;;;;;;;3.70;1.40;;;;;;;20.78;99.85;96758.31;5036995;28;20025;-74
2022/07/03 08:28:39;;;;;;;3.30;1.40;;;;;;;20.76;97.44;96757.78;5036405;28;20078;-73
2022/07/03 08:31:05;;;;;;;2.78;1.40;;;;;;;20.83;100.00;96760.91;5039576;28;20049;-73
2022/07/03 08:33:30;;;;;;;3.85;1.35;;;;;;;20.83;97.42;96766.34;5039942;28;20033;-73
2022/07/03 08:35:56;;;;;;;4.13;1.40;;;;;;;20.80;100.00;96758.00;5024654;28;20040;-73
2022/07/03 08:38:29;;;;;;;7.43;1.45;;;;;;;20.85;98.43;96755.97;5006009;28;20033;-73
2022/07/03 08:40:58;;;;;;;2.03;1.00;;;;;;;20.88;100.00;96767.34;5041870;28;20032;-73
2022/07/03 08:43:24;;;;;;;5.78;1.30;;;;;;;20.87;100.00;96761.09;5042266;28;20029;-73
2022/07/03 08:45:50;;;;;;;4.55;1.20;;;;;;;20.94;100.00;96766.13;5025028;28;20030;-73
2022/07/03 08:48:18;;;;;;;2.65;1.20;;;;;;;21.06;100.00;96760.94;5024459;28;20025;-73
2022/07/03 08:50:45;;;;;;;3.25;1.30;;;;;;;21.12;97.08;96768.66;5023586;28;20455;-73
2022/07/03 08:53:11;;;;;;;4.53;1.10;;;;;;;21.14;97.29;96765.63;5023868;28;20053;-73
2022/07/03 08:55:37;;;;;;;4.65;1.35;;;;;;;21.22;100.00;96761.38;5038262;28;20037;-73
2022/07/03 08:58:05;;;;;;;3.95;1.33;;;;;;;21.30;100.00;96766.91;5039012;28;20052;-73
2022/07/03 09:00:32;;;;;;;9.23;1.63;;;;;;;21.34;98.91;96762.47;5038200;28;20045;-73
2022/07/03 09:02:59;;;;;;;3.97;1.20;;;;;;;21.41;100.00;96757.38;5006369;28;20563;-73
2022/07/03 09:05:25;;;;;;;2.28;1.10;;;;;;;21.46;100.00;96761.88;5022987;28;20041;-73
2022/07/03 09:07:52;;;;;;;3.70;1.30;;;;;;;21.47;98.15;96762.69;5042647;28;20059;-73
2022/07/03 09:10:19;;;;;;;4.57;1.30;;;;;;;21.50;96.26;96762.06;5066117;28;20073;-73
2022/07/03 09:12:46;;;;;;;5.60;1.40;;;;;;;21.66;100.00;96758.66;5044849;28;20029;-73
2022/07/03 09:15:12;;;;;;;4.47;1.30;;;;;;;21.73;97.06;96754.69;5039203;28;20033;-73
2022/07/03 09:17:38;;;;;;;6.55;1.55;;;;;;;21.79;93.11;96756.13;5045389;28;20407;-73
2022/07/03 09:20:06;;;;;;;4.03;1.40;;;;;;;21.81;96.09;96756.63;5025537;28;20112;-73
2022/07/03 09:22:36;;;;;;;5.82;1.48;;;;;;;21.89;90.19;96759.41;5043722;28;20480;-73
2022/07/03 09:25:16;;;;;;;7.40;1.50;;;;;;;22.00;93.39;96761.84;5042463;28;20051;-73
2022/07/03 09:27:50;;;;;;;3.07;1.17;;;;;;;22.12;89.50;96760.16;5045259;28;20031;-73
2022/07/03 09:30:16;;;;;;;2.80;1.35;;;;;;;22.23;96.57;96757.94;5051505;28;20043;-73
2022/07/03 09:32:44;;;;;;;7.43;1.70;;;;;;;22.49;93.28;96758.03;5023999;28;20029;-73
2022/07/03 09:35:23;;;;;;;3.53;1.30;;;;;;;23.02;93.85;96760.50;5041213;28;20078;-73
2022/07/03 09:37:49;;;;;;;3.55;1.30;;;;;;;23.27;83.62;96760.84;5039716;28;20053;-73
2022/07/03 09:40:16;;;;;;;6.97;1.40;;;;;;;23.22;81.96;96758.25;5023612;28;20106;-73
2022/07/03 09:43:06;;;;;;;4.63;1.30;;;;;;;23.43;83.54;96750.22;5040909;28;20061;-73
2022/07/03 09:45:51;;;;;;;8.00;1.35;;;;;;;23.69;77.68;96759.16;5033567;28;20036;-73
2022/07/03 09:48:33;;;;;;;2.90;1.20;;;;;;;24.03;77.63;96757.44;5041621;28;20033;-73
2022/07/03 09:51:34;;;;;;;2.47;1.00;;;;;;;23.80;78.20;96765.88;5038940;28;20071;-73
2022/07/03 09:54:00;;;;;;;;;;;;;;;24.01;83.33;96765.16;4986950;28;20038;-73
2022/07/03 09:56:37;;;;;;;2.88;1.20;;;;;;;23.80;78.80;96756.88;5005780;28;19913;-73
2022/07/03 09:59:12;;;;;;;3.58;1.30;;;;;;;23.75;82.91;96760.59;5008936;28;20512;-73
2022/07/03 10:01:45;;;;;;;3.30;1.20;;;;;;;23.71;82.15;96756.09;5019605;28;20017;-73
2022/07/03 10:04:15;;;;;;;5.07;1.27;;;;;;;23.71;83.35;96767.03;5024708;28;20048;-73
2022/07/03 10:06:47;;;;;;;3.25;1.20;;;;;;;23.39;83.14;96763.69;5011990;28;20541;-73
2022/07/03 10:09:17;;;;;;;3.03;1.30;;;;;;;23.39;82.81;96760.97;5027753;28;20037;-73
2022/07/03 10:11:44;;;;;;;12.10;1.52;;;;;;;23.68;88.87;96757.56;5023131;28;20040;-73
2022/07/03 10:14:15;;;;;;;3.80;0.93;;;;;;;23.84;76.23;96757.84;5022205;28;20035;-74
2022/07/03 10:16:41;;;;;;;4.97;1.20;;;;;;;24.22;71.24;96763.31;5009986;28;20033;-73
2022/07/03 10:19:13;;;;;;;5.20;1.00;;;;;;;24.36;71.73;96761.19;5038207;28;20047;-73
2022/07/03 10:21:41;;;;;;;5.32;1.13;;;;;;;24.65;71.27;96756.81;5017751;28;20041;-73
2022/07/03 10:24:08;;;;;;;2.33;1.05;;;;;;;24.98;68.36;96754.16;5027247;28;20087;-73
2022/07/03 10:26:35;;;;;;;3.75;1.20;;;;;;;25.29;66.54;96756.50;5039855;28;20036;-73
2022/07/03 10:29:02;;;;;;;2.40;1.10;;;;;;;25.63;59.00;96747.16;5020287;28;20347;-74
2022/07/03 10:31:27;;;;;;;3.35;1.10;;;;;;;25.34;69.03;96753.56;5057761;28;20029;-73
2022/07/03 10:33:55;;;;;;;3.85;1.30;;;;;;;25.33;68.36;96760.19;5019798;28;20048;-74
2022/07/03 10:36:22;;;;;;;3.90;1.20;;;;;;;25.32;70.53;96755.03;5022115;28;20049;-74
2022/07/03 10:38:49;;;;;;;3.05;1.15;;;;;;;25.59;62.49;96753.63;4687782;28;10000058;-74
2022/07/03 10:47:02;;;;;;;3.15;1.17;;;;;;;25.31;70.63;96748.78;5018809;28;20041;-73
2022/07/03 10:49:28;;;;;;;6.22;1.30;;;;;;;25.71;65.04;96749.03;5016917;28;20033;-73
2022/07/03 10:52:02;;;;;;;3.40;1.20;;;;;;;26.15;50.29;96748.50;5006166;28;20025;-73
2022/07/03 10:54:38;;;;;;;3.45;1.00;;;;;;;26.53;48.89;96743.50;5026873;28;20060;-73
2022/07/03 10:57:03;;;;;;;2.78;1.10;;;;;;;26.68;53.16;96747.47;5041961;28;20045;-73
2022/07/03 10:59:35;;;;;;;3.20;1.20;;;;;;;26.98;43.17;96750.72;5035223;28;20025;-74
2022/07/03 11:02:29;;;;;;;3.45;1.05;;;;;;;27.06;41.66;96744.34;5022744;28;20044;-73
2022/07/03 11:05:03;;;;;;;2.47;1.30;;;;;;;27.45;43.06;96733.66;5020050;28;20136;-73
2022/07/03 11:07:42;;;;;;;3.50;1.13;;;;;;;27.65;41.33;96740.09;5005608;28;20021;-73
2022/07/03 11:10:10;;;;;;;1.95;1.00;;;;;;;28.19;44.16;96732.06;5036503;28;20273;-73
2022/07/03 11:12:58;;;;;;;3.40;1.20;;;;;;;27.81;40.93;96737.38;5037844;28;20551;-74
2022/07/03 11:15:33;;;;;;;3.75;1.20;;;;;;;27.38;41.94;96737.00;5020025;28;20443;-74
2022/07/03 11:18:11;;;;;;;3.05;1.17;;;;;;;27.75;43.74;96739.59;5033946;28;20136;-73
2022/07/03 11:20:43;;;;;;;4.22;1.17;;;;;;;27.55;39.14;96735.09;5021195;28;20045;-74
2022/07/03 11:23:09;;;;;;;5.43;1.20;;;;;;;27.59;40.60;96736.78;5036929;28;20025;-73
2022/07/03 11:25:50;;;;;;;2.70;1.13;;;;;;;28.56;36.77;96726.25;5020815;28;20090;-74
2022/07/03 11:28:31;;;;;;;3.13;1.13;;;;;;;27.58;40.64;96739.88;5041353;28;20036;-73
2022/07/03 11:31:13;;;;;;;2.90;1.02;;;;;;;27.24;43.35;96736.63;5042978;28;20579;-73
2022/07/03 11:33:42;;;;;;;3.97;1.08;;;;;;;29.55;39.35;96727.59;5051243;28;20508;-73
2022/07/03 11:36:16;;;;;;;4.63;1.10;;;;;;;31.11;30.99;96720.22;5024320;28;20036;-73
2022/07/03 11:38:44;;;;;;;5.18;1.40;;;;;;;33.15;29.72;96708.97;5026503;28;20483;-73
2022/07/03 11:41:11;;;;;;;3.58;1.48;;;;;;;34.85;27.81;96715.91;5053817;28;20041;-73
2022/07/03 11:43:37;;;;;;;2.20;0.90;;;;;;;36.10;25.31;96701.44;5022931;28;20132;-73
2022/07/03 11:46:05;;;;;;;5.47;1.20;;;;;;;36.99;22.76;96698.63;5039205;28;20065;-73
2022/07/03 11:48:30;;;;;;;2.97;1.00;;;;;;;37.72;21.14;96700.09;5007310;28;20276;-73
2022/07/03 11:51:03;;;;;;;3.92;1.15;;;;;;;37.45;21.17;96702.88;5020808;28;20552;-73